Time;durP1;ratioP1;P1;durP2;ratioP2;P2;SDS_P1;SDS_P2;PMS_P1;PMS_P2;Temp;Humidity;BMP_temperature;BMP_pressure;BME280_temperature;BME280_humidity;BME280_pressure;Samples;Min_cycle;Max_cycle;Signal;HPM_P1;HPM_P2
2023/05/20 00:00:26;;;;;;;10.05;4.57;;;12.50;99.90;;;;;;5132499;27;20039;-55
2023/05/20 00:02:52;;;;;;;11.70;4.28;;;12.50;99.90;;;;;;5132175;27;20043;-54
2023/05/20 00:05:18;;;;;;;13.77;4.72;;;12.50;99.90;;;;;;5132624;27;20035;-55
2023/05/20 00:07:43;;;;;;;10.73;4.80;;;12.40;99.90;;;;;;5132479;27;20042;-57
2023/05/20 00:10:10;;;;;;;12.52;4.53;;;12.40;99.90;;;;;;5113756;27;20108;-55
2023/05/20 00:12:37;;;;;;;13.32;4.32;;;12.40;99.90;;;;;;5132673;27;20043;-58
2023/05/20 00:15:03;;;;;;;12.35;5.10;;;12.40;99.90;;;;;;5131550;27;20389;-56
2023/05/20 00:17:30;;;;;;;11.73;4.70;;;12.40;99.90;;;;;;5132166;27;20046;-52
2023/05/20 00:19:55;;;;;;;13.50;4.60;;;12.40;99.90;;;;;;5132530;27;20573;-54
2023/05/20 00:22:21;;;;;;;13.35;4.82;;;12.30;99.90;;;;;;5132068;27;20039;-56
2023/05/20 00:24:47;;;;;;;11.57;4.35;;;12.20;99.90;;;;;;5132055;27;20033;-55
2023/05/20 00:27:12;;;;;;;10.45;4.55;;;12.20;99.90;;;;;;5132205;27;20035;-57
2023/05/20 00:29:38;;;;;;;11.05;4.65;;;12.10;99.90;;;;;;5132210;27;20057;-54
2023/05/20 00:32:04;;;;;;;10.48;4.68;;;12.10;99.90;;;;;;5132181;27;20393;-57
2023/05/20 00:34:30;;;;;;;9.52;4.55;;;12.10;99.90;;;;;;5113076;27;20039;-51
2023/05/20 00:36:55;;;;;;;11.93;4.78;;;12.10;99.90;;;;;;5132088;27;20114;-54
2023/05/20 00:39:21;;;;;;;13.00;4.80;;;12.10;99.90;;;;;;5131668;27;20069;-50
2023/05/20 00:41:47;;;;;;;12.10;4.70;;;12.10;99.90;;;;;;5131411;27;20043;-52
2023/05/20 00:44:12;;;;;;;12.05;4.47;;;12.10;99.90;;;;;;5132133;27;20029;-55
2023/05/20 00:46:38;;;;;;;12.75;5.15;;;12.10;99.90;;;;;;5131662;27;20100;-55
2023/05/20 00:49:05;;;;;;;12.57;4.53;;;12.10;99.90;;;;;;5132148;27;20043;-55
2023/05/20 00:51:31;;;;;;;16.27;4.90;;;12.10;99.90;;;;;;5130761;27;20474;-56
2023/05/20 00:53:57;;;;;;;12.30;4.70;;;12.00;99.90;;;;;;5131753;27;20046;-52
2023/05/20 00:56:24;;;;;;;10.82;4.95;;;12.00;99.90;;;;;;5131714;28;20508;-57
2023/05/20 00:58:50;;;;;;;9.63;4.38;;;12.00;99.90;;;;;;5131787;28;20051;-55
2023/05/20 01:01:15;;;;;;;9.98;4.80;;;11.90;99.90;;;;;;5113288;28;20039;-55
2023/05/20 01:03:41;;;;;;;12.32;5.68;;;11.90;99.90;;;;;;5131169;28;20379;-55
2023/05/20 01:06:07;;;;;;;13.80;4.80;;;11.80;99.90;;;;;;5131883;28;20157;-55
2023/05/20 01:08:33;;;;;;;14.45;5.15;;;11.80;99.90;;;;;;5131388;28;20035;-53
2023/05/20 01:11:04;;;;;;;14.68;4.57;;;11.80;99.90;;;;;;5131672;28;20047;-56
2023/05/20 01:13:43;;;;;;;13.52;5.53;;;11.80;99.90;;;;;;5131601;28;20118;-56
2023/05/20 01:16:10;;;;;;;9.52;4.72;;;11.80;99.90;;;;;;5131301;28;20039;-57
2023/05/20 01:18:38;;;;;;;9.68;4.68;;;11.80;99.90;;;;;;5131273;28;20023;-53
2023/05/20 01:21:06;;;;;;;15.35;5.10;;;11.70;99.90;;;;;;5131357;28;20069;-53
2023/05/20 01:23:39;;;;;;;11.70;4.95;;;11.70;99.90;;;;;;5131715;28;20502;-56
2023/05/20 01:26:06;;;;;;;14.45;5.32;;;11.60;99.90;;;;;;5133867;27;20115;-55
2023/05/20 01:28:37;;;;;;;14.70;5.20;;;11.70;99.90;;;;;;5135750;27;20394;-52
2023/05/20 01:31:06;;;;;;;12.57;5.32;;;11.70;99.90;;;;;;5135023;27;20046;-56
2023/05/20 01:33:35;;;;;;;17.02;5.55;;;11.60;99.90;;;;;;5135214;27;20382;-55
2023/05/20 01:36:01;;;;;;;11.18;5.03;;;11.70;99.90;;;;;;5135482;27;20047;-55
2023/05/20 01:38:28;;;;;;;10.52;5.07;;;11.60;99.90;;;;;;5134959;27;20057;-55
2023/05/20 01:40:56;;;;;;;11.77;5.13;;;11.60;99.90;;;;;;5135535;27;20504;-53
2023/05/20 01:43:24;;;;;;;13.95;4.78;;;11.60;99.90;;;;;;5135340;27;20494;-54
2023/05/20 01:45:50;;;;;;;11.07;5.28;;;11.50;99.90;;;;;;5134988;27;20067;-53
2023/05/20 01:48:16;;;;;;;11.15;5.35;;;11.50;99.90;;;;;;5134932;27;20116;-56
2023/05/20 01:50:41;;;;;;;12.77;5.38;;;11.50;99.90;;;;;;5135337;27;20106;-54
2023/05/20 01:53:08;;;;;;;11.40;5.10;;;11.50;99.90;;;;;;5135193;27;20121;-56
2023/05/20 01:55:34;;;;;;;12.40;5.55;;;11.50;99.90;;;;;;5134981;27;20043;-56
2023/05/20 01:58:01;;;;;;;15.60;5.15;;;11.50;99.90;;;;;;5134769;27;20079;-55
2023/05/20 02:00:27;;;;;;;11.07;4.70;;;11.50;99.90;;;;;;5134866;27;20207;-57
2023/05/20 02:02:52;;;;;;;13.80;4.93;;;11.50;99.90;;;;;;5134374;27;20072;-57
2023/05/20 02:05:18;;;;;;;12.85;5.32;;;11.50;99.90;;;;;;5135173;27;20031;-57
2023/05/20 02:07:44;;;;;;;13.52;5.18;;;11.50;99.90;;;;;;5116347;27;20035;-57
2023/05/20 02:10:10;;;;;;;14.02;5.30;;;11.50;99.90;;;;;;5116602;27;20091;-54
2023/05/20 02:12:35;;;;;;;10.88;4.72;;;11.50;99.90;;;;;;5134626;27;20035;-52
2023/05/20 02:15:01;;;;;;;11.68;5.10;;;11.40;99.90;;;;;;5134390;27;20042;-56
2023/05/20 02:17:27;;;;;;;13.65;5.32;;;11.40;99.90;;;;;;5116307;27;20296;-57
2023/05/20 02:19:53;;;;;;;13.27;5.57;;;11.40;99.90;;;;;;5134772;27;20377;-56
2023/05/20 02:22:19;;;;;;;9.63;4.55;;;11.40;99.90;;;;;;5134679;27;20035;-57
2023/05/20 02:24:45;;;;;;;11.43;4.75;;;11.40;99.90;;;;;;5134691;27;20031;-54
2023/05/20 02:27:11;;;;;;;12.05;5.10;;;11.40;99.90;;;;;;5134713;27;20038;-54
2023/05/20 02:29:37;;;;;;;12.52;5.00;;;11.40;99.90;;;;;;5134324;27;20039;-52
2023/05/20 02:32:03;;;;;;;16.67;5.07;;;11.40;99.90;;;;;;5134255;27;20127;-54
2023/05/20 02:34:30;;;;;;;12.52;5.72;;;11.40;99.90;;;;;;5134036;27;20115;-55
2023/05/20 02:36:56;;;;;;;14.55;4.93;;;11.40;99.90;;;;;;5133372;27;20035;-55
2023/05/20 02:39:21;;;;;;;12.50;5.40;;;11.40;99.90;;;;;;5133994;27;20065;-55
2023/05/20 02:41:47;;;;;;;11.30;4.72;;;11.40;99.90;;;;;;5134482;27;20438;-56
2023/05/20 02:44:13;;;;;;;11.00;4.85;;;11.40;99.90;;;;;;5134183;27;20039;-56
2023/05/20 02:46:39;;;;;;;12.75;4.90;;;11.40;99.90;;;;;;5134121;27;20495;-56
2023/05/20 02:49:04;;;;;;;14.20;4.78;;;11.40;99.90;;;;;;5134080;27;20083;-57
2023/05/20 02:51:33;;;;;;;11.30;5.10;;;11.40;99.90;;;;;;5132767;27;20042;-53
2023/05/20 02:53:58;;;;;;;9.75;4.88;;;11.40;99.90;;;;;;5133945;27;20042;-55
2023/05/20 02:56:25;;;;;;;9.52;4.70;;;11.40;99.90;;;;;;5134013;27;20035;-54
2023/05/20 02:58:51;;;;;;;13.68;5.55;;;11.30;99.90;;;;;;5133689;27;20114;-57
2023/05/20 03:01:17;;;;;;;11.07;5.30;;;11.40;99.90;;;;;;5134067;27;20647;-54
2023/05/20 03:03:42;;;;;;;12.93;4.85;;;11.30;99.90;;;;;;5133395;27;20038;-56
2023/05/20 03:06:08;;;;;;;8.60;4.63;;;11.30;99.90;;;;;;5133842;27;20039;-54
2023/05/20 03:08:35;;;;;;;10.27;5.03;;;11.30;99.90;;;;;;5133572;27;20031;-52
2023/05/20 03:11:01;;;;;;;11.25;5.20;;;11.30;99.90;;;;;;5133574;27;20047;-56
2023/05/20 03:13:26;;;;;;;11.20;4.78;;;11.30;99.90;;;;;;5133734;27;20035;-55
2023/05/20 03:15:52;;;;;;;11.23;5.00;;;11.20;99.90;;;;;;5133773;27;20047;-54
2023/05/20 03:18:18;;;;;;;9.77;5.07;;;11.20;99.90;;;;;;5133540;27;20466;-54
2023/05/20 03:20:45;;;;;;;9.95;4.75;;;11.30;99.90;;;;;;5133519;27;20114;-56
2023/05/20 03:23:11;;;;;;;10.50;5.25;;;11.20;99.90;;;;;;5132703;27;20114;-55
2023/05/20 03:25:37;;;;;;;12.80;5.32;;;11.20;99.90;;;;;;5131614;27;20671;-55
2023/05/20 03:28:04;;;;;;;9.15;4.80;;;11.20;99.90;;;;;;5132652;27;20059;-53
2023/05/20 03:30:30;;;;;;;12.20;5.15;;;11.20;99.90;;;;;;5133310;27;20074;-53
2023/05/20 03:32:59;;;;;;;15.45;5.32;;;11.20;99.90;;;;;;5132871;27;20119;-53
2023/05/20 03:35:25;;;;;;;15.60;4.72;;;11.20;99.90;;;;;;5132825;27;20035;-56
2023/05/20 03:37:52;;;;;;;12.25;4.80;;;11.20;99.90;;;;;;5132463;27;20070;-54
2023/05/20 03:40:19;;;;;;;12.63;5.47;;;11.20;99.90;;;;;;5133177;27;20515;-54
2023/05/20 03:42:45;;;;;;;8.88;4.43;;;11.20;99.90;;;;;;5133069;27;20028;-54
2023/05/20 03:45:11;;;;;;;10.82;4.68;;;11.20;99.90;;;;;;5132909;27;20039;-52
2023/05/20 03:47:36;;;;;;;14.68;5.25;;;11.20;99.90;;;;;;5114127;27;20035;-55
2023/05/20 03:50:02;;;;;;;7.97;4.60;;;11.20;99.90;;;;;;5133046;27;20126;-54
2023/05/20 03:52:28;;;;;;;10.90;4.55;;;11.20;99.90;;;;;;5132857;27;20090;-55
2023/05/20 03:54:54;;;;;;;9.35;4.60;;;11.20;99.90;;;;;;5133016;27;20039;-54
2023/05/20 03:57:19;;;;;;;9.55;4.40;;;11.20;99.90;;;;;;5132653;27;20063;-54
2023/05/20 03:59:45;;;;;;;10.75;5.10;;;11.20;99.90;;;;;;5132853;27;20381;-57
2023/05/20 04:02:11;;;;;;;8.65;4.00;;;11.20;99.90;;;;;;5132832;27;20561;-57
2023/05/20 04:04:36;;;;;;;11.30;4.78;;;11.20;99.90;;;;;;5130969;27;20469;-56
2023/05/20 04:07:05;;;;;;;7.97;4.13;;;11.20;99.90;;;;;;5113870;27;20082;-54
2023/05/20 04:09:31;;;;;;;8.90;3.97;;;11.20;99.90;;;;;;5114168;27;20033;-53
2023/05/20 04:11:56;;;;;;;9.57;4.47;;;11.20;99.90;;;;;;5132307;27;20026;-55
2023/05/20 04:14:22;;;;;;;10.27;4.45;;;11.30;99.90;;;;;;5132531;27;20398;-54
2023/05/20 04:16:49;;;;;;;8.55;4.10;;;11.30;99.90;;;;;;5132213;27;20043;-57
2023/05/20 04:19:14;;;;;;;10.30;4.35;;;11.30;99.90;;;;;;5132232;27;20035;-57
2023/05/20 04:21:42;;;;;;;12.75;4.25;;;11.30;99.90;;;;;;5132151;27;20046;-55
2023/05/20 04:24:07;;;;;;;10.73;4.20;;;11.30;99.90;;;;;;5132231;27;20118;-55
2023/05/20 04:26:34;;;;;;;8.98;4.13;;;11.40;99.90;;;;;;5132035;27;20758;-55
2023/05/20 04:29:02;;;;;;;8.18;4.28;;;11.30;99.90;;;;;;5132175;27;20032;-56
2023/05/20 04:31:31;;;;;;;9.52;4.53;;;11.40;99.90;;;;;;5132134;27;20035;-54
2023/05/20 04:33:57;;;;;;;9.38;4.10;;;11.30;99.90;;;;;;5131767;27;20507;-55
2023/05/20 04:36:27;;;;;;;7.90;4.35;;;11.30;99.90;;;;;;5131786;27;20046;-55
2023/05/20 04:38:54;;;;;;;7.57;3.90;;;11.30;99.90;;;;;;5131456;27;20051;-53
2023/05/20 04:41:19;;;;;;;17.15;4.68;;;11.30;99.90;;;;;;5131671;27;20046;-57
2023/05/20 04:43:45;;;;;;;8.75;4.43;;;11.30;99.90;;;;;;5132108;27;20114;-55
2023/05/20 04:46:11;;;;;;;10.65;4.15;;;11.30;99.90;;;;;;5131691;27;20035;-56
2023/05/20 04:48:37;;;;;;;8.57;3.58;;;11.30;99.90;;;;;;5131562;27;20046;-54
2023/05/20 04:51:02;;;;;;;10.60;3.90;;;11.40;99.90;;;;;;5131961;27;20126;-57
2023/05/20 04:53:29;;;;;;;9.30;3.50;;;11.40;99.90;;;;;;5131749;27;20031;-55
2023/05/20 04:55:55;;;;;;;6.88;3.30;;;11.40;99.90;;;;;;5131929;27;20039;-53
2023/05/20 04:58:23;;;;;;;7.25;3.60;;;11.50;99.90;;;;;;5131657;28;20031;-57
2023/05/20 05:00:50;;;;;;;10.55;3.60;;;11.50;99.90;;;;;;5131228;27;20375;-52
2023/05/20 05:03:16;;;;;;;7.65;3.42;;;11.50;99.90;;;;;;5131145;28;20062;-55
2023/05/20 05:05:42;;;;;;;7.25;3.58;;;11.50;99.90;;;;;;5131657;28;20537;-54
2023/05/20 05:08:10;;;;;;;10.48;3.72;;;11.60;99.90;;;;;;5131576;28;20047;-57
2023/05/20 05:10:36;;;;;;;8.38;3.53;;;11.60;99.90;;;;;;5131887;28;20047;-55
2023/05/20 05:13:02;;;;;;;6.93;3.50;;;11.60;99.90;;;;;;5131318;28;20035;-57
2023/05/20 05:15:28;;;;;;;7.03;3.42;;;11.60;99.90;;;;;;5113026;28;20039;-54
2023/05/20 05:17:54;;;;;;;7.03;3.47;;;11.50;99.90;;;;;;5131319;28;20049;-55
2023/05/20 05:20:20;;;;;;;9.02;3.65;;;11.60;99.90;;;;;;5131742;28;20087;-52
2023/05/20 05:22:46;;;;;;;8.55;3.55;;;11.60;99.90;;;;;;5131621;28;20039;-56
2023/05/20 05:25:12;;;;;;;8.20;4.00;;;11.60;99.90;;;;;;5131912;28;20031;-52
2023/05/20 05:27:39;;;;;;;6.70;3.33;;;11.60;99.90;;;;;;5131234;28;20102;-57
2023/05/20 05:30:06;;;;;;;9.18;3.10;;;11.70;99.90;;;;;;5131712;28;20043;-55
2023/05/20 05:32:32;;;;;;;6.10;3.15;;;11.70;99.90;;;;;;5131828;28;20039;-52
2023/05/20 05:34:58;;;;;;;8.05;3.47;;;11.80;99.90;;;;;;5130916;28;20054;-57
2023/05/20 05:37:23;;;;;;;8.75;3.38;;;11.80;99.90;;;;;;5131587;28;20031;-57
2023/05/20 05:39:49;;;;;;;7.78;3.35;;;11.90;99.90;;;;;;5131037;28;20043;-54
2023/05/20 05:42:15;;;;;;;7.20;3.38;;;11.90;99.90;;;;;;5131181;28;20494;-55
2023/05/20 05:44:41;;;;;;;6.47;2.83;;;12.00;99.90;;;;;;5131412;28;20038;-51
2023/05/20 05:47:06;;;;;;;7.25;3.28;;;12.00;99.90;;;;;;5095918;28;20067;-56
2023/05/20 05:49:33;;;;;;;6.82;2.83;;;12.10;99.90;;;;;;5131279;28;20035;-55
2023/05/20 05:51:59;;;;;;;7.18;3.05;;;12.10;99.90;;;;;;5131323;28;20431;-54
2023/05/20 05:54:24;;;;;;;7.93;3.08;;;12.20;99.90;;;;;;5112667;28;20043;-56
2023/05/20 05:56:50;;;;;;;7.45;3.03;;;12.30;99.90;;;;;;5131281;28;20422;-56
2023/05/20 05:59:16;;;;;;;8.43;3.08;;;12.40;99.90;;;;;;5131411;28;20038;-53
2023/05/20 06:01:42;;;;;;;5.35;2.47;;;12.40;99.90;;;;;;5131395;28;20474;-57
2023/05/20 06:04:08;;;;;;;6.10;2.83;;;12.50;99.90;;;;;;5112182;28;20091;-58
2023/05/20 06:06:33;;;;;;;5.68;2.67;;;12.50;99.90;;;;;;5131342;28;20038;-55
2023/05/20 06:08:59;;;;;;;5.88;2.60;;;12.60;99.90;;;;;;5131025;28;20059;-55
2023/05/20 06:11:25;;;;;;;9.32;2.58;;;12.60;99.90;;;;;;5131293;27;20034;-53
2023/05/20 06:13:51;;;;;;;3.70;2.17;;;12.70;99.90;;;;;;5134361;27;20027;-58
2023/05/20 06:16:17;;;;;;;6.38;2.42;;;12.80;99.90;;;;;;5134906;27;20024;-56
2023/05/20 06:18:44;;;;;;;8.43;3.00;;;12.90;99.90;;;;;;5134349;27;20039;-56
2023/05/20 06:21:10;;;;;;;5.93;2.55;;;12.90;99.90;;;;;;5134621;27;20027;-54
2023/05/20 06:23:36;;;;;;;6.22;2.50;;;13.00;99.90;;;;;;5134549;27;20034;-58
2023/05/20 06:26:02;;;;;;;7.07;2.97;;;13.00;99.90;;;;;;5134408;27;20375;-54
2023/05/20 06:28:28;;;;;;;5.93;2.08;;;13.10;99.90;;;;;;5134045;27;20043;-58
2023/05/20 06:30:54;;;;;;;5.32;2.30;;;13.20;99.90;;;;;;5134710;27;20470;-57
2023/05/20 06:33:24;;;;;;;5.78;2.33;;;13.30;99.90;;;;;;5133989;27;20035;-52
2023/05/20 06:35:51;;;;;;;6.70;2.35;;;13.30;99.90;;;;;;5134397;27;20035;-56
2023/05/20 06:38:17;;;;;;;6.00;2.28;;;13.40;99.90;;;;;;5134110;27;20447;-57
2023/05/20 06:40:43;;;;;;;6.78;2.60;;;13.50;99.90;;;;;;5133951;27;20039;-54
2023/05/20 06:43:09;;;;;;;5.50;2.38;;;13.50;99.90;;;;;;5134330;27;20085;-56
2023/05/20 06:45:34;;;;;;;4.57;2.20;;;13.60;99.90;;;;;;5134250;27;20398;-55
2023/05/20 06:48:00;;;;;;;5.70;2.47;;;13.70;99.90;;;;;;5134316;27;20456;-55
2023/05/20 06:50:27;;;;;;;4.63;2.10;;;13.70;99.90;;;;;;5134314;27;20176;-57
2023/05/20 06:52:53;;;;;;;7.63;2.50;;;13.80;99.90;;;;;;5133993;27;20042;-54
2023/05/20 06:55:19;;;;;;;6.18;2.38;;;13.90;99.90;;;;;;5133790;27;20043;-54
2023/05/20 06:57:45;;;;;;;6.43;2.30;;;14.00;99.90;;;;;;5133555;27;20043;-58
2023/05/20 07:00:12;;;;;;;4.75;2.00;;;14.00;99.90;;;;;;5133751;27;20421;-57
2023/05/20 07:02:39;;;;;;;6.72;1.90;;;14.10;99.90;;;;;;5133487;27;20067;-53
2023/05/20 07:05:05;;;;;;;6.13;2.50;;;14.10;99.90;;;;;;5133575;27;20053;-56
2023/05/20 07:07:31;;;;;;;7.85;2.20;;;14.20;99.90;;;;;;5133774;27;20653;-57
2023/05/20 07:09:57;;;;;;;6.25;2.13;;;14.20;99.90;;;;;;5133834;27;20076;-55
2023/05/20 07:12:23;;;;;;;4.72;2.10;;;14.30;99.90;;;;;;5133469;27;20035;-57
2023/05/20 07:14:49;;;;;;;5.95;2.30;;;14.30;99.90;;;;;;5133677;27;20092;-54
2023/05/20 07:17:15;;;;;;;4.50;2.25;;;14.40;99.90;;;;;;5133604;27;20494;-57
2023/05/20 07:19:41;;;;;;;5.03;1.95;;;14.40;99.90;;;;;;5133762;27;20067;-57
2023/05/20 07:22:06;;;;;;;5.68;2.10;;;14.50;99.90;;;;;;5133323;27;20477;-56
2023/05/20 07:24:32;;;;;;;5.35;2.40;;;14.60;99.90;;;;;;5097625;27;20045;-56
2023/05/20 07:26:58;;;;;;;5.28;2.30;;;14.60;99.90;;;;;;5133466;27;20092;-56
2023/05/20 07:29:24;;;;;;;7.32;2.25;;;14.70;99.90;;;;;;5133411;27;20039;-56
2023/05/20 07:31:50;;;;;;;7.63;2.78;;;14.80;99.90;;;;;;5133305;27;20031;-57
2023/05/20 07:34:15;;;;;;;4.93;2.45;;;14.90;99.90;;;;;;5114310;27;20111;-55
2023/05/20 07:36:42;;;;;;;6.25;2.28;;;14.90;99.90;;;;;;5133234;27;20544;-56
2023/05/20 07:39:09;;;;;;;5.28;2.40;;;14.90;99.90;;;;;;5132938;27;20072;-53
2023/05/20 07:41:38;;;;;;;5.00;2.42;;;15.00;99.90;;;;;;5133057;27;20035;-56
2023/05/20 07:44:04;;;;;;;6.45;2.60;;;15.10;99.90;;;;;;5133128;27;20046;-56
2023/05/20 07:46:30;;;;;;;5.28;2.35;;;15.20;99.90;;;;;;5132987;27;20035;-55
2023/05/20 07:48:56;;;;;;;4.53;2.35;;;15.20;99.90;;;;;;5133051;27;20071;-54
2023/05/20 07:51:22;;;;;;;5.20;2.58;;;15.30;99.90;;;;;;5132980;27;20417;-56
2023/05/20 07:53:47;;;;;;;5.95;2.47;;;15.40;99.90;;;;;;5114433;27;20072;-55
2023/05/20 07:56:13;;;;;;;4.78;2.38;;;15.40;99.90;;;;;;5132884;27;20382;-56
2023/05/20 07:58:42;;;;;;;4.55;2.30;;;15.50;99.90;;;;;;5132579;27;20042;-56
2023/05/20 08:01:08;;;;;;;5.40;2.30;;;15.60;99.90;;;;;;5132445;27;20043;-56
2023/05/20 08:03:35;;;;;;;5.47;2.30;;;15.60;99.90;;;;;;5132420;27;20079;-53
2023/05/20 08:06:02;;;;;;;6.70;2.42;;;15.70;99.90;;;;;;5112858;27;20078;-54
2023/05/20 08:08:29;;;;;;;4.85;2.10;;;15.70;99.90;;;;;;5132187;27;20049;-57
2023/05/20 08:10:55;;;;;;;5.43;2.30;;;15.80;99.90;;;;;;5132582;27;20042;-54
2023/05/20 08:13:21;;;;;;;4.97;2.33;;;15.90;99.90;;;;;;5132723;27;20099;-58
2023/05/20 08:15:47;;;;;;;5.18;2.10;;;16.00;99.90;;;;;;5132393;27;20328;-55
2023/05/20 08:18:14;;;;;;;5.60;2.20;;;16.00;99.90;;;;;;5114154;27;20130;-56
2023/05/20 08:20:41;;;;;;;4.30;2.35;;;16.10;99.90;;;;;;5113672;27;20065;-55
2023/05/20 08:23:07;;;;;;;4.13;2.33;;;16.10;99.90;;;;;;5132477;27;20471;-55
2023/05/20 08:25:33;;;;;;;5.43;2.63;;;16.10;99.90;;;;;;5132125;27;20153;-56
2023/05/20 08:28:02;;;;;;;5.55;2.40;;;16.20;99.90;;;;;;5132249;27;20038;-55
2023/05/20 08:30:29;;;;;;;6.70;2.25;;;16.20;99.90;;;;;;5132083;27;20481;-58
2023/05/20 08:32:55;;;;;;;5.15;2.30;;;16.20;99.90;;;;;;5131584;27;20035;-56
2023/05/20 08:35:22;;;;;;;5.97;2.40;;;16.30;99.90;;;;;;5131479;27;20122;-57
2023/05/20 08:37:47;;;;;;;4.20;2.15;;;16.30;99.90;;;;;;5131800;27;20475;-57
2023/05/20 08:40:14;;;;;;;5.95;2.10;;;16.30;99.90;;;;;;5132062;27;20035;-55
2023/05/20 08:42:43;;;;;;;5.18;2.10;;;16.40;99.90;;;;;;5131473;27;20110;-56
2023/05/20 08:45:12;;;;;;;4.95;2.00;;;16.50;99.90;;;;;;5131810;27;20042;-55
2023/05/20 08:47:42;;;;;;;4.90;1.98;;;16.60;99.90;;;;;;5131650;27;20043;-55
2023/05/20 08:50:12;;;;;;;3.63;2.03;;;16.80;99.90;;;;;;5131547;27;20046;-55
2023/05/20 08:52:47;;;;;;;4.63;2.20;;;16.90;99.90;;;;;;5131987;27;20043;-53
2023/05/20 08:55:16;;;;;;;5.78;1.80;;;17.00;99.90;;;;;;5131840;27;20038;-53
2023/05/20 08:57:44;;;;;;;5.95;2.20;;;17.20;99.90;;;;;;5131430;28;20027;-56
2023/05/20 09:00:12;;;;;;;5.07;2.33;;;17.20;99.90;;;;;;5131942;27;20043;-54
2023/05/20 09:02:38;;;;;;;5.20;2.28;;;17.30;99.90;;;;;;5131458;28;20043;-56
2023/05/20 09:05:05;;;;;;;7.07;2.20;;;17.30;99.90;;;;;;5113041;28;20388;-56
2023/05/20 09:07:30;;;;;;;5.85;1.95;;;17.50;99.90;;;;;;5131546;28;20071;-56
2023/05/20 09:09:57;;;;;;;7.03;2.00;;;17.60;99.90;;;;;;5131301;28;20123;-56
2023/05/20 09:12:23;;;;;;;4.60;2.13;;;17.80;99.90;;;;;;5131852;28;20043;-57
2023/05/20 09:14:49;;;;;;;4.85;1.98;;;17.90;99.90;;;;;;5131800;28;20126;-56
2023/05/20 09:17:14;;;;;;;4.72;2.55;;;18.10;99.90;;;;;;5131370;28;20493;-54
2023/05/20 09:19:40;;;;;;;6.55;2.00;;;18.30;99.90;;;;;;5131648;28;20050;-57
2023/05/20 09:22:06;;;;;;;7.68;2.08;;;18.40;99.90;;;;;;5131728;28;20110;-58
2023/05/20 09:24:32;;;;;;;6.85;1.80;;;18.60;99.90;;;;;;5131728;28;20429;-58
2023/05/20 09:26:58;;;;;;;5.75;2.05;;;18.70;99.90;;;;;;5131578;28;20055;-56
2023/05/20 09:29:25;;;;;;;4.30;1.80;;;18.80;99.90;;;;;;5131713;28;20153;-57
2023/05/20 09:31:52;;;;;;;4.70;1.63;;;19.00;99.90;;;;;;5131579;28;20434;-56
2023/05/20 09:34:19;;;;;;;4.03;1.63;;;19.10;99.90;;;;;;5131303;28;20043;-57
2023/05/20 09:36:52;;;;;;;4.43;1.95;;;19.10;99.70;;;;;;5131082;28;20035;-57
2023/05/20 09:39:24;;;;;;;3.22;1.60;;;19.10;99.60;;;;;;5131160;28;20051;-56
2023/05/20 09:42:10;;;;;;;5.35;1.90;;;19.10;99.30;;;;;;5131624;28;20031;-57
2023/05/20 09:44:36;;;;;;;3.38;1.63;;;19.20;99.20;;;;;;5131453;28;20035;-57
2023/05/20 09:47:03;;;;;;;5.05;1.63;;;19.30;99.20;;;;;;5133847;27;20099;-57
2023/05/20 09:49:31;;;;;;;4.47;1.77;;;19.30;99.00;;;;;;5135232;27;20395;-58
2023/05/20 09:51:58;;;;;;;3.83;2.00;;;19.20;99.20;;;;;;5134960;27;20039;-56
2023/05/20 09:54:26;;;;;;;3.95;1.75;;;19.00;99.20;;;;;;5135306;27;20050;-56
2023/05/20 09:56:53;;;;;;;4.97;1.75;;;19.10;99.30;;;;;;5135107;27;20071;-55
2023/05/20 09:59:21;;;;;;;4.15;1.52;;;19.20;99.30;;;;;;5135134;27;20032;-55
2023/05/20 10:01:46;;;;;;;5.70;1.73;;;19.40;99.20;;;;;;5135203;27;20114;-58
2023/05/20 10:04:15;;;;;;;4.70;1.90;;;19.50;98.70;;;;;;5134396;27;20554;-58
2023/05/20 10:07:06;;;;;;;6.57;1.90;;;19.70;98.60;;;;;;5134034;27;20106;-55
2023/05/20 10:10:04;;;;;;;4.97;1.65;;;19.70;98.10;;;;;;5134613;27;20031;-56
2023/05/20 10:12:47;;;;;;;3.75;1.73;;;19.80;98.40;;;;;;5116069;27;20125;-55
2023/05/20 10:15:26;;;;;;;5.28;1.73;;;19.90;98.20;;;;;;5134948;27;20038;-57
2023/05/20 10:18:17;;;;;;;5.60;2.08;;;19.90;97.40;;;;;;5134785;27;20039;-59
2023/05/20 10:20:50;;;;;;;4.68;1.70;;;19.90;97.00;;;;;;5134434;27;20119;-59
2023/05/20 10:23:29;;;;;;;4.73;1.77;;;19.90;97.10;;;;;;5134610;27;20046;-54
2023/05/20 10:25:57;;;;;;;4.72;1.95;;;20.00;96.70;;;;;;5134329;27;20075;-54
2023/05/20 10:28:32;;;;;;;4.20;1.50;;;20.00;96.90;;;;;;5134678;27;20088;-55
2023/05/20 10:30:59;;;;;;;4.75;1.70;;;20.10;96.50;;;;;;5134484;27;20054;-54
2023/05/20 10:33:29;;;;;;;4.03;1.67;;;20.20;96.50;;;;;;5134365;27;20423;-56
2023/05/20 10:35:58;;;;;;;6.82;1.70;;;20.30;96.10;;;;;;5133483;27;20042;-56
2023/05/20 10:38:25;;;;;;;3.67;1.70;;;20.30;96.10;;;;;;5133910;27;20087;-54
2023/05/20 10:40:51;;;;;;;4.75;1.77;;;20.20;96.40;;;;;;5134057;27;20051;-56
2023/05/20 10:43:29;;;;;;;5.03;1.80;;;19.90;96.40;;;;;;5133973;27;20031;-56
2023/05/20 10:45:57;;;;;;;4.85;1.70;;;20.10;96.30;;;;;;5134282;27;20031;-55
2023/05/20 10:48:30;;;;;;;7.05;1.98;;;20.00;96.40;;;;;;5134092;27;20046;-55
2023/05/20 10:51:04;;;;;;;4.88;1.67;;;20.00;96.20;;;;;;5134307;27;20096;-58
2023/05/20 10:53:39;;;;;;;7.10;1.60;;;20.10;96.50;;;;;;5134069;27;20111;-56
2023/05/20 10:56:15;;;;;;;4.05;1.77;;;20.30;96.40;;;;;;5134296;27;20071;-57
2023/05/20 10:58:41;;;;;;;4.22;1.70;;;20.50;96.60;;;;;;5131259;27;20067;-58
2023/05/20 11:01:06;;;;;;;6.47;2.05;;;20.60;96.20;;;;;;5133992;27;20035;-55
2023/05/20 11:03:34;;;;;;;6.38;1.60;;;20.60;95.70;;;;;;5133466;27;20036;-54
2023/05/20 11:05:59;;;;;;;4.57;1.70;;;20.60;95.50;;;;;;5133951;27;20038;-57
2023/05/20 11:08:30;;;;;;;6.90;1.80;;;20.70;96.00;;;;;;5133753;27;20054;-56
2023/05/20 11:10:56;;;;;;;4.40;1.75;;;20.90;95.90;;;;;;5115176;27;20035;-57
2023/05/20 11:13:22;;;;;;;3.50;1.77;;;21.00;95.90;;;;;;5133809;27;20027;-58
2023/05/20 11:15:48;;;;;;;5.07;1.98;;;21.20;95.60;;;;;;5133315;27;20134;-58
2023/05/20 11:18:14;;;;;;;5.45;1.90;;;21.30;95.90;;;;;;5133757;27;20039;-55
2023/05/20 11:20:40;;;;;;;6.00;2.03;;;21.40;95.80;;;;;;5133313;27;20493;-57
2023/05/20 11:23:12;;;;;;;4.82;1.90;;;21.50;95.50;;;;;;5133395;27;20031;-58
2023/05/20 11:25:37;;;;;;;7.45;1.90;;;21.60;95.20;;;;;;5133625;27;20418;-56
2023/05/20 11:28:03;;;;;;;2.95;1.42;;;21.60;95.30;;;;;;5133556;27;20047;-58
2023/05/20 11:30:29;;;;;;;4.97;1.90;;;21.80;95.10;;;;;;5133536;27;20070;-58
2023/05/20 11:33:14;;;;;;;4.20;1.80;;;21.90;95.00;;;;;;5133057;27;20457;-58
2023/05/20 11:35:48;;;;;;;4.85;1.67;;;21.90;94.30;;;;;;5133073;27;20046;-56
2023/05/20 11:38:14;;;;;;;9.50;1.80;;;21.80;94.80;;;;;;5132901;27;20051;-59
2023/05/20 11:40:45;;;;;;;5.63;1.45;;;21.90;94.80;;;;;;5133178;27;20505;-55
2023/05/20 11:43:12;;;;;;;4.47;1.52;;;21.70;94.10;;;;;;5114556;27;20051;-53
2023/05/20 11:45:40;;;;;;;3.60;1.50;;;21.50;94.30;;;;;;5133083;27;20039;-56
2023/05/20 11:48:05;;;;;;;10.30;1.95;;;21.50;94.40;;;;;;5132587;27;20047;-58
2023/05/20 11:50:39;;;;;;;3.67;1.55;;;21.40;94.00;;;;;;5114793;27;20050;-55
2023/05/20 11:53:06;;;;;;;5.20;1.73;;;21.30;94.10;;;;;;5113412;27;20054;-58
2023/05/20 11:55:32;;;;;;;4.18;1.30;;;21.10;94.00;;;;;;5132637;27;20035;-57
2023/05/20 11:58:00;;;;;;;3.95;1.35;;;21.00;94.20;;;;;;5132591;27;20039;-57
2023/05/20 12:00:26;;;;;;;4.15;1.60;;;21.00;94.10;;;;;;5132869;27;20482;-57
2023/05/20 12:02:52;;;;;;;4.07;1.63;;;21.20;94.00;;;;;;5114395;27;20124;-56
2023/05/20 12:05:19;;;;;;;3.03;1.48;;;21.20;94.00;;;;;;5132384;27;20039;-58
2023/05/20 12:07:44;;;;;;;4.07;1.45;;;21.30;94.50;;;;;;5132603;27;20089;-56
2023/05/20 12:10:12;;;;;;;5.80;1.60;;;21.60;94.00;;;;;;5132636;27;20070;-57
2023/05/20 12:12:38;;;;;;;8.18;1.85;;;21.70;94.40;;;;;;5132260;27;20042;-57
2023/05/20 12:15:04;;;;;;;5.38;1.67;;;21.90;93.90;;;;;;5114003;27;20054;-58
2023/05/20 12:17:42;;;;;;;5.22;1.83;;;22.10;93.40;;;;;;5132440;27;20043;-58
2023/05/20 12:20:09;;;;;;;5.60;1.80;;;22.30;93.40;;;;;;5132644;27;20126;-58
2023/05/20 12:22:34;;;;;;;3.90;1.40;;;22.40;93.60;;;;;;5131946;27;20031;-56
2023/05/20 12:25:00;;;;;;;4.50;1.40;;;22.60;93.10;;;;;;5132223;27;20046;-57
2023/05/20 12:27:27;;;;;;;3.92;1.58;;;22.90;93.10;;;;;;5132198;27;20395;-59
2023/05/20 12:29:52;;;;;;;4.05;1.45;;;22.90;92.50;;;;;;5132279;27;20043;-56
2023/05/20 12:32:19;;;;;;;4.32;1.35;;;22.70;92.20;;;;;;5132243;27;20539;-59
2023/05/20 12:34:45;;;;;;;6.00;1.67;;;22.50;92.50;;;;;;5131766;27;20039;-57
2023/05/20 12:37:11;;;;;;;3.92;1.30;;;22.30;92.40;;;;;;5131931;27;20047;-54
2023/05/20 12:39:36;;;;;;;4.03;1.40;;;22.10;92.40;;;;;;5131634;27;20050;-59
2023/05/20 12:42:03;;;;;;;3.53;1.10;;;22.30;92.50;;;;;;5131705;27;20100;-57